Atlantic - Newfoundland: Past 24 Hour Conditions

 

Bonavista

09:30 AM NDT 23 September 2014
This table is a summary of hourly weather conditions for the past 24 hours.
Date / Time
(NDT)
Wind(knots) Conditions Visibility(km) Pressure(kPa) Air tempC) Relative humidity(%) Dew pointC) Humidex
23 September 2014
9:30 SW 24 gust 33 N/A N/A 100.6 17 83 14 *
8:30 SW 22 gust 27 N/A N/A 100.5 17 84 14 *
7:30 SW 19 N/A N/A 100.5 17 90 15 *
6:30 SSW 25 gust 33 N/A N/A 100.4 17 89 15 *
5:30 SSW 27 gust 34 N/A N/A 100.4 17 92 16 *
4:30 SSW 31 gust 38 N/A N/A 100.4 17 91 16 *
3:30 SSW 21 gust 30 N/A N/A 100.5 16 92 15 *
2:30 SSW 29 gust 34 N/A N/A 100.5 16 93 15 *
1:30 SSW 28 gust 34 N/A N/A 100.5 17 94 16 *
0:30 SW 24 gust 31 N/A N/A 100.4 17 96 16 *
22 September 2014
23:30 SW 26 gust 34 N/A N/A 100.4 17 96 16 *
22:30 SW 26 gust 32 N/A N/A 100.3 18 96 17 *
21:30 SSW 29 gust 37 N/A N/A 100.2 19 94 18 *
20:30 SSW 33 gust 45 N/A N/A 100.2 19 94 18 *
19:30 SSW 33 gust 48 N/A N/A 100.2 20 95 19 *
18:30 S 31 gust 54 N/A N/A 100.3 21 90 19 28
17:30 SSW 42 gust 53 N/A N/A 100.3 21 88 19 28
16:30 S 28 gust 38 N/A N/A 100.5 19 96 18 *
15:30 S 29 gust 35 N/A N/A 100.7 18 95 17 *
14:30 S 23 gust 31 N/A N/A 100.8 18 94 17 *
13:30 S 21 gust 29 N/A N/A 101.0 20 77 16 *
12:30 S 26 gust 35 N/A N/A 101.2 20 76 15 *
11:30 S 22 gust 27 N/A N/A 101.4 19 81 16 *
10:30 SSW 22 gust 39 N/A N/A 101.5 19 83 16 *
9:30 SSW 26 gust 31 N/A N/A 101.6 18 86 16 *
 
Map of Atlantic - Newfoundland marine weather areas Southwestern Grand Banks - 44138 Banquereau - 44139 Tail of the Bank - 44140 Nickerson Bank - 44251 Northeast Burgeo Bank - 44255 Blanc-Sablon Airport Cap Whittle Chevery Natashquan Airport Heath Point Miscou Island Grand Étang Ingonish Beach North Mountain St.Paul Island J.A. Douglas McCurdy Sydney Airport Charlottetown Airport East Point North Cape Argentia Bonavista Burgeo Cape Race Corner Brook Daniel's Harbour Englee Ferolle Point La Scie Port aux Basques Rocky Harbour Sagona Island St. Anthony Airport St. John's Int'l Airport St. Lawrence Stephenville Airport Twillingate Winterland Wreckhouse Cartwright Airport Mary's Harbour Grates Cove Pool's Island Marticot Island Long Pond Îles de la Madeleine Airport
Legend: buoyBuoy land stationLand Station